Time;durP1;ratioP1;P1;durP2;ratioP2;P2;SDS_P1;SDS_P2;PMS_P1;PMS_P2;Temp;Humidity;BMP_temperature;BMP_pressure;BME280_temperature;BME280_humidity;BME280_pressure;Samples;Min_cycle;Max_cycle;Signal;HPM_P1;HPM_P2
2022/06/07 00:02:37;;;;;;;2.08;1.30;;;13.60;99.90;;;;;;6288366;28;20286;-65
2022/06/07 00:05:43;;;;;;;2.97;1.33;;;13.60;99.90;;;;;;6288308;28;20275;-66
2022/06/07 00:08:51;;;;;;;4.43;1.50;;;13.50;99.90;;;;;;6288372;28;20294;-66
2022/06/07 00:11:58;;;;;;;2.38;1.50;;;13.60;99.90;;;;;;6288727;28;20263;-66
2022/06/07 00:15:03;;;;;;;4.03;1.58;;;13.60;99.90;;;;;;6287263;28;20294;-66
2022/06/07 00:18:14;;;;;;;5.75;1.70;;;13.60;99.90;;;;;;6287623;28;20307;-67
2022/06/07 00:21:19;;;;;;;3.30;1.42;;;13.60;99.90;;;;;;6287914;28;20267;-66
2022/06/07 00:24:25;;;;;;;1.50;1.45;;;13.70;99.90;;;;;;6287443;28;20303;-66
2022/06/07 00:27:31;;;;;;;4.57;1.50;;;13.60;99.90;;;;;;6287848;28;20382;-66
2022/06/07 00:30:37;;;;;;;1.70;1.60;;;13.50;99.90;;;;;;6270641;28;20271;-67
2022/06/07 00:33:42;;;;;;;1.40;1.40;;;13.50;99.90;;;;;;6287392;28;20298;-66
2022/06/07 00:36:47;;;;;;;1.50;1.50;;;13.60;99.90;;;;;;6270605;28;20571;-66
2022/06/07 00:39:52;;;;;;;2.97;1.60;;;13.50;99.90;;;;;;6286157;28;20614;-67
2022/06/07 00:42:59;;;;;;;4.53;1.60;;;13.50;99.90;;;;;;6287203;28;20590;-66
2022/06/07 00:46:07;;;;;;;1.85;1.50;;;13.50;99.90;;;;;;6287554;28;20279;-66
2022/06/07 00:49:13;;;;;;;1.42;1.42;;;13.40;99.90;;;;;;6269641;28;20296;-66
2022/06/07 00:52:20;;;;;;;2.30;2.05;;;13.40;99.90;;;;;;6286729;28;20287;-66
2022/06/07 00:55:26;;;;;;;1.92;1.30;;;13.40;99.90;;;;;;6269934;28;20291;-66
2022/06/07 00:58:39;;;;;;;2.00;1.90;;;13.30;99.90;;;;;;6269549;28;20291;-66
2022/06/07 01:01:45;;;;;;;4.90;1.70;;;13.30;99.90;;;;;;6269912;28;20275;-66
2022/06/07 01:04:51;;;;;;;1.50;1.50;;;13.30;99.90;;;;;;6269002;28;20299;-66
2022/06/07 01:11:27;;;;;;;1.50;1.50;;;13.20;99.90;;;;;;6284743;28;20263;-66
2022/06/07 01:14:34;;;;;;;1.42;1.40;;;13.30;99.90;;;;;;6268779;28;20298;-66
2022/06/07 01:17:39;;;;;;;2.35;1.60;;;13.20;99.90;;;;;;6284808;28;20310;-66
2022/06/07 01:20:44;;;;;;;4.40;1.88;;;13.10;99.90;;;;;;6285175;28;20274;-66
2022/06/07 01:23:51;;;;;;;1.55;1.48;;;13.00;99.90;;;;;;6286538;28;20605;-66
2022/06/07 01:27:00;;;;;;;1.45;1.33;;;13.10;99.90;;;;;;6268920;28;20271;-66
2022/06/07 01:30:08;;;;;;;2.35;1.98;;;13.00;99.90;;;;;;6286745;28;20271;-66
2022/06/07 01:33:15;;;;;;;3.22;1.63;;;13.00;99.90;;;;;;6285049;28;20572;-67
2022/06/07 01:36:21;;;;;;;3.10;1.63;;;13.10;99.90;;;;;;6286715;28;20286;-67
2022/06/07 01:42:48;;;;;;;1.70;1.65;;;13.00;99.90;;;;;;6243035;28;20291;-67
2022/06/07 01:45:53;;;;;;;2.15;1.50;;;12.90;99.90;;;;;;6285228;28;20570;-67
2022/06/07 01:48:59;;;;;;;1.45;1.33;;;12.80;99.90;;;;;;6268283;28;20294;-67
2022/06/07 01:52:05;;;;;;;3.65;1.42;;;12.90;99.90;;;;;;6267845;28;20275;-67
2022/06/07 01:55:15;;;;;;;1.60;1.50;;;12.90;99.90;;;;;;6268457;28;20287;-67
2022/06/07 01:58:34;;;;;;;1.50;1.50;;;12.90;99.90;;;;;;6268112;28;20300;-67
2022/06/07 02:01:40;;;;;;;3.42;1.30;;;12.90;99.90;;;;;;6285001;28;20275;-67
2022/06/07 02:04:46;;;;;;;2.17;1.30;;;12.90;99.90;;;;;;6285470;28;20479;-67
2022/06/07 02:07:50;;;;;;;1.50;1.40;;;12.90;99.90;;;;;;6267964;28;20290;-67
2022/06/07 02:11:08;;;;;;;1.52;1.42;;;12.90;99.90;;;;;;6285389;28;20568;-67
2022/06/07 02:14:15;;;;;;;1.40;1.40;;;12.90;99.90;;;;;;6284549;28;20311;-67
2022/06/07 02:17:21;;;;;;;1.42;1.42;;;12.90;99.90;;;;;;6267789;28;20299;-67
2022/06/07 02:20:37;;;;;;;1.83;1.45;;;13.00;99.90;;;;;;6284599;28;20547;-67
2022/06/07 02:23:42;;;;;;;1.50;1.50;;;13.00;99.90;;;;;;6283919;28;20299;-67
2022/06/07 02:26:53;;;;;;;3.55;1.60;;;12.90;99.90;;;;;;6267931;28;20270;-67
2022/06/07 02:29:58;;;;;;;1.50;1.50;;;12.80;99.90;;;;;;6285205;28;20586;-67
2022/06/07 02:33:03;;;;;;;1.60;1.60;;;12.90;99.90;;;;;;6285579;28;20290;-67
2022/06/07 02:36:12;;;;;;;1.80;1.70;;;12.80;99.90;;;;;;6285476;28;20291;-67
2022/06/07 02:39:18;;;;;;;1.50;1.50;;;12.90;99.90;;;;;;6285628;28;20294;-67
2022/06/07 02:42:29;;;;;;;2.58;1.50;;;12.80;99.90;;;;;;6284947;28;20295;-67
2022/06/07 02:45:34;;;;;;;1.48;1.45;;;12.90;99.90;;;;;;6284560;28;20271;-67
2022/06/07 02:48:40;;;;;;;1.83;1.73;;;12.90;99.90;;;;;;6267509;28;20303;-67
2022/06/07 02:51:45;;;;;;;2.00;1.50;;;12.90;99.90;;;;;;6267967;28;20271;-67
2022/06/07 02:55:07;;;;;;;3.70;1.50;;;12.80;99.90;;;;;;6267063;28;20279;-67
2022/06/07 02:58:15;;;;;;;1.92;1.50;;;12.90;99.90;;;;;;6267629;28;20577;-67
2022/06/07 03:01:20;;;;;;;1.50;1.50;;;13.00;99.90;;;;;;6285012;28;20271;-67
2022/06/07 03:04:26;;;;;;;1.80;1.73;;;12.80;99.90;;;;;;6283816;28;20610;-67
2022/06/07 03:07:31;;;;;;;1.63;1.58;;;13.00;99.90;;;;;;6266824;28;20291;-67
2022/06/07 03:10:37;;;;;;;1.50;1.40;;;13.00;99.90;;;;;;6284362;28;20259;-67
2022/06/07 03:13:46;;;;;;;2.78;1.63;;;13.00;99.90;;;;;;6267008;28;20294;-67
2022/06/07 03:16:58;;;;;;;1.50;1.50;;;13.00;99.90;;;;;;6267497;28;20299;-67
2022/06/07 03:20:11;;;;;;;1.70;1.60;;;12.90;99.90;;;;;;6266685;28;20306;-67
2022/06/07 03:23:18;;;;;;;2.13;1.48;;;13.00;99.90;;;;;;6267115;28;20291;-67
2022/06/07 03:26:30;;;;;;;1.95;1.73;;;13.00;99.90;;;;;;6285397;28;20275;-67
2022/06/07 03:29:45;;;;;;;2.60;1.70;;;13.00;99.90;;;;;;6283533;28;20301;-67
2022/06/07 03:32:57;;;;;;;1.50;1.40;;;13.10;99.90;;;;;;6267593;28;20291;-66
2022/06/07 03:36:08;;;;;;;1.63;1.60;;;13.30;99.90;;;;;;6289574;28;20288;-66
2022/06/07 03:39:15;;;;;;;1.45;1.45;;;13.30;99.90;;;;;;6287646;28;20303;-66
2022/06/07 03:42:31;;;;;;;4.38;1.73;;;13.50;99.90;;;;;;6271281;28;20279;-66
2022/06/07 03:45:40;;;;;;;1.40;1.40;;;13.60;99.90;;;;;;6271299;28;20276;-66
2022/06/07 03:48:50;;;;;;;1.25;1.25;;;13.70;99.90;;;;;;6287879;28;20394;-66
2022/06/07 03:51:59;;;;;;;1.23;1.23;;;13.80;99.90;;;;;;6288974;28;20267;-66
2022/06/07 03:55:11;;;;;;;2.17;1.40;;;13.80;99.90;;;;;;6287039;28;20578;-66
2022/06/07 03:58:37;;;;;;;1.90;1.30;;;14.00;99.90;;;;;;6270765;28;20479;-66
2022/06/07 04:01:45;;;;;;;1.42;1.42;;;13.90;99.90;;;;;;6289149;28;20267;-66
2022/06/07 04:04:50;;;;;;;1.20;1.20;;;14.00;99.90;;;;;;6270837;28;20310;-66
2022/06/07 04:08:13;;;;;;;2.05;1.20;;;14.10;99.90;;;;;;6270683;28;20464;-66
2022/06/07 04:11:26;;;;;;;1.38;1.30;;;14.10;99.90;;;;;;6271000;28;20263;-67
2022/06/07 04:14:38;;;;;;;1.45;1.35;;;14.30;99.90;;;;;;6286652;28;20476;-67
2022/06/07 04:17:44;;;;;;;1.20;1.10;;;14.30;99.90;;;;;;6287229;28;20326;-66
2022/06/07 04:21:02;;;;;;;1.27;1.27;;;14.40;99.90;;;;;;6288501;28;20271;-66
2022/06/07 04:24:08;;;;;;;1.40;1.30;;;14.50;99.90;;;;;;6270454;28;20290;-66
2022/06/07 04:27:15;;;;;;;2.25;1.38;;;14.50;99.90;;;;;;6270604;28;20482;-66
2022/06/07 04:30:25;;;;;;;1.70;1.60;;;14.60;99.90;;;;;;6269767;28;20449;-67
2022/06/07 04:33:36;;;;;;;1.48;1.35;;;14.70;99.90;;;;;;6269833;28;20300;-66
2022/06/07 04:36:43;;;;;;;1.45;1.30;;;14.80;99.90;;;;;;6286727;28;20299;-67
2022/06/07 04:39:52;;;;;;;1.40;1.40;;;14.90;99.90;;;;;;6286218;28;20299;-66
2022/06/07 04:42:58;;;;;;;2.30;1.35;;;15.00;99.90;;;;;;6286115;28;20314;-66
2022/06/07 04:46:09;;;;;;;1.25;1.25;;;15.00;99.90;;;;;;6270166;28;20557;-66
2022/06/07 04:49:16;;;;;;;2.03;1.40;;;15.10;99.90;;;;;;6286113;28;20597;-66
2022/06/07 04:52:22;;;;;;;2.45;1.45;;;15.20;99.90;;;;;;6269660;28;20414;-66
2022/06/07 04:55:30;;;;;;;2.00;1.40;;;15.30;99.90;;;;;;6269861;28;20550;-67
2022/06/07 04:58:36;;;;;;;3.13;1.73;;;15.40;99.90;;;;;;6269259;28;20299;-67
2022/06/07 05:01:44;;;;;;;2.08;1.30;;;15.40;99.90;;;;;;6287499;28;20275;-67
2022/06/07 05:05:08;;;;;;;3.13;1.50;;;15.50;99.90;;;;;;6269431;28;20295;-66
2022/06/07 05:08:16;;;;;;;3.70;1.38;;;15.60;99.90;;;;;;6269281;28;20300;-66
2022/06/07 05:11:23;;;;;;;3.75;1.60;;;15.70;99.90;;;;;;6285883;28;20263;-66
2022/06/07 05:14:28;;;;;;;9.27;1.63;;;15.80;99.90;;;;;;6269188;28;20299;-66
2022/06/07 05:17:33;;;;;;;2.38;1.40;;;16.00;99.90;;;;;;6268663;28;20294;-66
2022/06/07 05:20:41;;;;;;;1.80;1.23;;;16.10;99.90;;;;;;6268977;28;20298;-66
2022/06/07 05:23:52;;;;;;;1.67;1.50;;;16.20;99.90;;;;;;6284911;28;20299;-66
2022/06/07 05:27:00;;;;;;;11.20;1.50;;;16.40;99.90;;;;;;6269251;28;20275;-68
2022/06/07 05:30:14;;;;;;;1.40;1.40;;;16.70;99.90;;;;;;6268932;28;20295;-67
2022/06/07 05:33:44;;;;;;;4.30;1.85;;;16.70;99.90;;;;;;6285258;28;20303;-66
2022/06/07 05:36:52;;;;;;;4.60;1.50;;;16.90;99.90;;;;;;6286689;28;20275;-66
2022/06/07 05:39:58;;;;;;;1.73;1.30;;;17.00;99.90;;;;;;6268204;28;20315;-68
2022/06/07 05:43:05;;;;;;;4.88;1.70;;;17.20;99.90;;;;;;6268516;28;20295;-67
2022/06/07 05:46:17;;;;;;;3.20;1.30;;;17.30;98.50;;;;;;6285299;28;20271;-67
2022/06/07 05:49:30;;;;;;;1.20;1.20;;;17.30;98.60;;;;;;6268355;28;20304;-67
2022/06/07 05:52:42;;;;;;;1.25;1.25;;;17.50;96.10;;;;;;6268196;28;20295;-67
2022/06/07 05:55:50;;;;;;;3.17;1.35;;;17.70;95.10;;;;;;6267508;28;20302;-67
2022/06/07 05:58:55;;;;;;;3.90;1.50;;;17.90;95.00;;;;;;6267983;28;20303;-67
2022/06/07 06:02:01;;;;;;;1.00;1.00;;;18.00;93.70;;;;;;6268303;28;20462;-67
2022/06/07 06:05:12;;;;;;;1.30;1.20;;;18.00;92.70;;;;;;6285567;28;20291;-67
2022/06/07 06:11:44;;;;;;;5.07;1.80;;;17.90;89.80;;;;;;6284554;28;20271;-67
2022/06/07 06:14:56;;;;;;;4.32;1.67;;;17.90;90.00;;;;;;6283480;28;20291;-66
2022/06/07 06:18:06;;;;;;;9.23;1.90;;;17.80;90.10;;;;;;6283582;28;20322;-66
2022/06/07 06:21:14;;;;;;;4.22;1.40;;;17.80;90.30;;;;;;6284041;28;20554;-66
2022/06/07 06:24:23;;;;;;;1.60;1.23;;;17.80;90.20;;;;;;6267522;28;20298;-66
2022/06/07 06:27:32;;;;;;;1.30;1.30;;;17.70;89.70;;;;;;6283834;28;20271;-67
2022/06/07 06:30:44;;;;;;;3.13;1.10;;;17.80;86.20;;;;;;6268081;28;20283;-67
2022/06/07 06:34:01;;;;;;;1.02;1.02;;;17.80;84.40;;;;;;6267338;28;20291;-67
2022/06/07 06:37:07;;;;;;;2.70;1.25;;;17.90;84.90;;;;;;6267771;28;20275;-67
2022/06/07 06:40:18;;;;;;;16.17;2.08;;;17.90;83.80;;;;;;6283785;28;20299;-66
2022/06/07 06:43:29;;;;;;;11.95;1.73;;;18.00;82.30;;;;;;6283670;28;20461;-66
2022/06/07 06:47:01;;;;;;;1.27;1.17;;;18.00;78.70;;;;;;6285827;28;20276;-67
2022/06/07 06:50:08;;;;;;;1.30;1.20;;;18.00;76.70;;;;;;6267262;28;20298;-66
2022/06/07 06:53:17;;;;;;;4.15;1.10;;;18.10;75.70;;;;;;6267839;28;20298;-66
2022/06/07 06:56:31;;;;;;;1.35;1.10;;;18.20;75.80;;;;;;6268107;28;20279;-66
2022/06/07 06:59:42;;;;;;;4.78;1.40;;;18.30;74.70;;;;;;6267105;28;20298;-68
2022/06/07 07:02:47;;;;;;;4.65;1.00;;;18.40;75.90;;;;;;6267282;28;20326;-66
2022/06/07 07:05:55;;;;;;;1.75;1.20;;;18.40;74.50;;;;;;6285143;28;20280;-66
2022/06/07 07:09:08;;;;;;;5.72;1.55;;;18.50;75.10;;;;;;6271660;28;20307;-66
2022/06/07 07:12:15;;;;;;;2.67;1.55;;;18.50;73.10;;;;;;6272033;28;20268;-67
2022/06/07 07:15:35;;;;;;;1.42;1.08;;;18.40;73.90;;;;;;6288420;28;20280;-67
2022/06/07 07:18:49;;;;;;;3.08;1.45;;;18.40;75.30;;;;;;6287896;28;20303;-67
2022/06/07 07:21:54;;;;;;;2.70;0.90;;;18.50;73.00;;;;;;6272182;28;20450;-67
2022/06/07 07:25:18;;;;;;;10.20;1.60;;;18.50;71.90;;;;;;6271247;28;20294;-67
2022/06/07 07:28:26;;;;;;;6.18;1.30;;;18.50;70.30;;;;;;6271494;28;20315;-67
2022/06/07 07:31:36;;;;;;;2.10;1.13;;;18.60;71.20;;;;;;6272071;28;20554;-67
2022/06/07 07:34:42;;;;;;;17.40;2.10;;;18.50;72.40;;;;;;6271305;28;20295;-68
2022/06/07 07:37:47;;;;;;;0.98;0.98;;;18.60;72.50;;;;;;6271487;28;20286;-68
2022/06/07 07:40:53;;;;;;;1.17;1.17;;;18.60;72.40;;;;;;6271529;28;20298;-67
2022/06/07 07:44:02;;;;;;;2.67;1.20;;;18.60;73.00;;;;;;6270988;28;20298;-68
2022/06/07 07:47:08;;;;;;;1.73;1.23;;;18.70;73.70;;;;;;6288881;28;20280;-68
2022/06/07 07:50:17;;;;;;;5.75;1.80;;;18.90;74.80;;;;;;6287533;28;20299;-68
2022/06/07 07:53:27;;;;;;;2.72;1.20;;;18.90;75.40;;;;;;6287229;28;20296;-68
2022/06/07 07:56:33;;;;;;;4.50;1.58;;;18.90;74.50;;;;;;6289150;28;20271;-67
2022/06/07 07:59:39;;;;;;;3.85;1.33;;;18.80;76.20;;;;;;6288083;28;20327;-67
2022/06/07 08:02:45;;;;;;;12.82;1.60;;;18.90;77.20;;;;;;6270567;28;20470;-68
2022/06/07 08:06:07;;;;;;;2.15;1.20;;;19.00;77.80;;;;;;6287592;28;20425;-68
2022/06/07 08:09:12;;;;;;;11.23;1.30;;;19.00;78.10;;;;;;6288393;28;20295;-68
2022/06/07 08:12:17;;;;;;;2.80;1.30;;;19.10;78.90;;;;;;6288551;28;20263;-68
2022/06/07 08:15:24;;;;;;;1.55;1.20;;;19.10;78.40;;;;;;6288058;28;20566;-67
2022/06/07 08:18:28;;;;;;;5.13;1.80;;;19.10;79.00;;;;;;6287373;28;20299;-67
2022/06/07 08:21:33;;;;;;;2.40;1.50;;;19.20;78.90;;;;;;6288589;28;20452;-67
2022/06/07 08:24:38;;;;;;;12.32;1.98;;;19.20;78.80;;;;;;6287726;28;20586;-66
2022/06/07 08:27:43;;;;;;;19.67;3.10;;;19.30;80.00;;;;;;6288119;28;20299;-66
2022/06/07 08:30:50;;;;;;;7.22;1.90;;;19.30;78.90;;;;;;6287864;28;20503;-66
2022/06/07 08:37:37;;;;;;;1.30;1.30;;;19.20;80.30;;;;;;6287611;28;20272;-66
2022/06/07 08:40:45;;;;;;;5.93;2.30;;;19.20;79.90;;;;;;6286918;28;20468;-65
2022/06/07 08:43:50;;;;;;;4.68;1.77;;;19.30;82.30;;;;;;6287214;28;20298;-67
2022/06/07 08:47:00;;;;;;;3.20;1.50;;;19.30;82.40;;;;;;6287594;28;20276;-67
2022/06/07 08:50:17;;;;;;;3.22;1.60;;;19.40;82.70;;;;;;6287182;28;20302;-68
2022/06/07 08:53:27;;;;;;;10.25;1.60;;;19.40;82.20;;;;;;6287717;28;20489;-68
2022/06/07 08:56:35;;;;;;;3.90;1.70;;;19.40;82.60;;;;;;6287551;28;20270;-68
2022/06/07 08:59:40;;;;;;;6.55;2.10;;;19.50;83.80;;;;;;6286873;28;20295;-67
2022/06/07 09:03:27;;;;;;;3.70;2.00;;;19.60;84.10;;;;;;6287241;28;20291;-68
2022/06/07 09:06:37;;;;;;;1.90;1.80;;;19.60;86.00;;;;;;6283100;28;20271;-67
2022/06/07 09:13:20;;;;;;;1.50;1.50;;;19.40;87.20;;;;;;6286539;28;20295;-68
2022/06/07 09:16:25;;;;;;;1.75;1.40;;;19.40;88.00;;;;;;6286623;28;20267;-68
2022/06/07 09:19:32;;;;;;;1.40;1.40;;;19.40;85.40;;;;;;6286468;28;20514;-68
2022/06/07 09:22:43;;;;;;;9.55;2.58;;;19.40;85.30;;;;;;6286375;28;20295;-68
2022/06/07 09:25:51;;;;;;;1.40;1.40;;;19.40;85.30;;;;;;6286809;28;20550;-67
2022/06/07 09:29:24;;;;;;;2.28;2.10;;;19.40;86.50;;;;;;6286074;28;20298;-67
2022/06/07 09:32:35;;;;;;;3.83;3.58;;;19.40;87.30;;;;;;6267366;28;20279;-67
2022/06/07 09:35:43;;;;;;;1.98;1.88;;;19.40;87.20;;;;;;6286887;28;20276;-67
2022/06/07 09:38:53;;;;;;;1.35;1.35;;;19.50;87.30;;;;;;6286048;28;20299;-67
2022/06/07 09:42:06;;;;;;;1.50;1.40;;;19.40;84.70;;;;;;6286574;28;20290;-67
2022/06/07 09:45:22;;;;;;;1.88;1.67;;;19.40;86.30;;;;;;6285982;28;20295;-67
2022/06/07 09:48:36;;;;;;;3.17;1.60;;;19.40;85.60;;;;;;6285610;28;20594;-67
2022/06/07 09:51:44;;;;;;;1.63;1.48;;;19.50;85.80;;;;;;6286434;28;20311;-67
2022/06/07 09:54:52;;;;;;;3.45;1.48;;;19.50;84.50;;;;;;6285622;28;20291;-67
2022/06/07 09:58:13;;;;;;;1.58;1.40;;;19.40;84.40;;;;;;6285540;28;20298;-67
2022/06/07 10:01:25;;;;;;;4.85;1.52;;;19.30;85.00;;;;;;6285465;28;20559;-67
2022/06/07 10:04:36;;;;;;;1.80;1.70;;;19.30;84.90;;;;;;6285369;28;20291;-67
2022/06/07 10:07:54;;;;;;;2.13;1.60;;;19.30;86.10;;;;;;6285059;28;20291;-67
2022/06/07 10:11:05;;;;;;;1.48;1.40;;;19.30;86.30;;;;;;6285855;28;20276;-67
2022/06/07 10:14:25;;;;;;;2.63;1.55;;;19.30;87.50;;;;;;6284971;28;20299;-67
2022/06/07 10:17:55;;;;;;;1.52;1.52;;;19.40;88.10;;;;;;6285562;28;20270;-67
2022/06/07 10:21:20;;;;;;;1.77;1.67;;;19.60;88.60;;;;;;6285452;28;20270;-67
2022/06/07 10:24:41;;;;;;;4.10;1.67;;;19.70;88.20;;;;;;6285099;28;20294;-67
2022/06/07 10:27:56;;;;;;;2.80;1.80;;;19.70;88.70;;;;;;6285146;28;20290;-67
2022/06/07 10:31:07;;;;;;;2.25;1.67;;;19.80;87.80;;;;;;6285713;28;20267;-67
2022/06/07 10:34:18;;;;;;;4.13;1.70;;;19.90;87.30;;;;;;6284627;28;20295;-67
2022/06/07 10:37:30;;;;;;;9.02;2.00;;;20.00;87.00;;;;;;6285205;28;20270;-66
2022/06/07 10:40:40;;;;;;;3.75;1.40;;;20.00;86.40;;;;;;6285417;28;20267;-66
2022/06/07 10:43:59;;;;;;;1.52;1.52;;;19.80;85.50;;;;;;6288605;28;20299;-67
2022/06/07 10:47:13;;;;;;;2.83;1.60;;;19.80;85.80;;;;;;6290488;28;20271;-66
2022/06/07 10:50:23;;;;;;;5.07;1.77;;;19.80;86.40;;;;;;6290353;28;20295;-66
2022/06/07 10:53:34;;;;;;;1.80;1.70;;;19.80;85.90;;;;;;6289751;28;20318;-66
2022/06/07 10:56:48;;;;;;;1.50;1.50;;;19.80;86.60;;;;;;6290475;28;20272;-66
2022/06/07 10:59:54;;;;;;;2.20;1.98;;;20.00;87.30;;;;;;6289778;28;20294;-66
2022/06/07 11:03:21;;;;;;;4.68;1.80;;;20.00;87.70;;;;;;6289217;28;20299;-66
2022/06/07 11:10:03;;;;;;;1.73;1.50;;;20.00;88.80;;;;;;6289551;28;20290;-66
2022/06/07 11:13:19;;;;;;;3.88;1.70;;;20.10;90.50;;;;;;6288948;28;20299;-66
2022/06/07 11:16:32;;;;;;;3.15;1.60;;;20.10;90.00;;;;;;6289540;28;20267;-67
2022/06/07 11:19:37;;;;;;;1.90;1.70;;;20.00;90.10;;;;;;6289022;28;20585;-67
2022/06/07 11:22:57;;;;;;;2.25;1.55;;;19.90;90.80;;;;;;6288604;28;20299;-67
2022/06/07 11:26:06;;;;;;;8.02;2.22;;;19.70;91.00;;;;;;6289485;28;20271;-67
2022/06/07 11:29:21;;;;;;;1.98;1.83;;;19.70;90.80;;;;;;6289346;28;20607;-67
2022/06/07 11:32:51;;;;;;;1.45;1.45;;;19.70;90.70;;;;;;6288818;28;20274;-66
2022/06/07 11:36:30;;;;;;;3.83;2.05;;;19.60;90.90;;;;;;6289150;28;20279;-66
2022/06/07 11:39:53;;;;;;;2.90;1.90;;;19.60;91.10;;;;;;6288949;28;20303;-67
2022/06/07 11:42:59;;;;;;;2.40;1.95;;;19.70;90.90;;;;;;6288205;28;20303;-67
2022/06/07 11:46:08;;;;;;;1.95;1.85;;;19.70;91.10;;;;;;6289314;28;20451;-67
2022/06/07 11:49:40;;;;;;;2.10;1.90;;;19.80;91.40;;;;;;6288392;28;20307;-67
2022/06/07 11:52:57;;;;;;;4.65;1.70;;;19.70;91.20;;;;;;6288344;28;20299;-67
2022/06/07 11:56:23;;;;;;;2.00;1.90;;;19.80;91.50;;;;;;6287932;28;20271;-67
2022/06/07 11:59:38;;;;;;;4.57;2.03;;;19.90;92.20;;;;;;6270794;28;20295;-66
2022/06/07 12:03:13;;;;;;;3.70;1.77;;;19.90;91.70;;;;;;6288366;28;20319;-67
2022/06/07 12:06:21;;;;;;;2.83;1.80;;;19.90;92.10;;;;;;6288912;28;20272;-67
2022/06/07 12:09:29;;;;;;;4.80;1.80;;;20.00;93.00;;;;;;6288374;28;20307;-67
2022/06/07 12:12:38;;;;;;;2.83;1.70;;;20.20;92.60;;;;;;6262974;28;20520;-67
2022/06/07 12:15:46;;;;;;;3.80;2.20;;;20.40;92.60;;;;;;6264051;28;20273;-67
2022/06/07 12:18:58;;;;;;;2.70;1.30;;;20.50;93.30;;;;;;6272102;28;20315;-68
2022/06/07 12:22:13;;;;;;;1.60;1.60;;;20.70;92.70;;;;;;6288229;28;20493;-67
2022/06/07 12:25:21;;;;;;;5.15;1.92;;;20.90;92.80;;;;;;6287802;28;20315;-67
2022/06/07 12:28:30;;;;;;;1.60;1.50;;;20.80;93.10;;;;;;6287558;28;20299;-67
2022/06/07 12:31:44;;;;;;;1.92;1.83;;;21.00;92.50;;;;;;6288042;28;20360;-67
2022/06/07 12:35:17;;;;;;;2.00;2.00;;;21.00;92.60;;;;;;6287827;28;20471;-67
2022/06/07 12:38:22;;;;;;;5.05;2.08;;;20.80;92.60;;;;;;6287528;28;20299;-67
2022/06/07 12:41:28;;;;;;;2.90;1.95;;;20.90;92.20;;;;;;6287523;28;20271;-67
2022/06/07 12:44:40;;;;;;;22.70;3.05;;;20.70;92.20;;;;;;6287443;28;20299;-67
2022/06/07 12:47:46;;;;;;;3.08;2.10;;;20.60;92.40;;;;;;6287528;28;20291;-67
2022/06/07 12:50:52;;;;;;;2.67;2.67;;;20.40;92.70;;;;;;6287564;28;20567;-66
2022/06/07 12:54:01;;;;;;;4.03;1.80;;;20.50;93.20;;;;;;6287226;28;20295;-67
2022/06/07 12:57:20;;;;;;;4.97;2.05;;;20.50;93.20;;;;;;6287437;28;20546;-66
2022/06/07 13:00:29;;;;;;;3.33;1.98;;;20.50;93.30;;;;;;6286044;28;20402;-66
2022/06/07 13:03:37;;;;;;;3.42;2.03;;;20.50;93.40;;;;;;6286711;28;20298;-66
2022/06/07 13:10:15;;;;;;;2.53;2.30;;;20.50;93.50;;;;;;6285068;27;20963;-66
2022/06/07 13:13:27;;;;;;;2.00;1.90;;;20.40;93.40;;;;;;6257527;28;20410;-68
2022/06/07 13:16:42;;;;;;;2.10;2.00;;;20.40;93.60;;;;;;6257800;28;20268;-68
2022/06/07 13:19:48;;;;;;;1.80;1.80;;;20.20;93.90;;;;;;6257559;28;20299;-68
2022/06/07 13:22:53;;;;;;;3.90;2.00;;;20.10;94.20;;;;;;6257008;28;20288;-68
2022/06/07 13:26:17;;;;;;;3.55;1.80;;;20.20;94.20;;;;;;6257813;28;20275;-68
2022/06/07 13:29:27;;;;;;;7.05;2.10;;;20.20;94.70;;;;;;6256692;28;20312;-66
2022/06/07 13:32:32;;;;;;;2.13;2.05;;;20.30;94.80;;;;;;6257287;28;20288;-67
2022/06/07 13:35:44;;;;;;;4.43;2.10;;;20.30;94.50;;;;;;6257535;28;20432;-67
2022/06/07 13:38:52;;;;;;;5.72;2.20;;;20.10;94.70;;;;;;6256702;28;20300;-67
2022/06/07 13:42:12;;;;;;;2.58;2.42;;;20.10;94.90;;;;;;6257321;28;20431;-67
2022/06/07 13:45:25;;;;;;;2.25;2.15;;;20.10;95.10;;;;;;6257064;28;20296;-67
2022/06/07 13:55:50;;;;;;;3.15;2.10;;;19.70;96.00;;;;;;6255776;28;20280;-68
2022/06/07 13:58:59;;;;;;;9.00;2.25;;;19.50;96.50;;;;;;6256653;28;20292;-68
2022/06/07 14:02:11;;;;;;;4.15;2.70;;;19.40;97.20;;;;;;6256706;28;20456;-68
2022/06/07 14:05:25;;;;;;;3.17;2.10;;;19.40;98.70;;;;;;6279693;28;20295;-68
2022/06/07 14:08:30;;;;;;;2.55;2.30;;;19.30;99.70;;;;;;6280941;28;20295;-68
2022/06/07 14:11:36;;;;;;;3.15;2.10;;;19.30;99.90;;;;;;6281587;28;20268;-68
2022/06/07 14:14:42;;;;;;;2.25;2.15;;;19.30;99.90;;;;;;6280690;28;20295;-68
2022/06/07 14:17:50;;;;;;;3.55;2.25;;;19.20;99.90;;;;;;6276670;28;20291;-68
2022/06/07 14:20:56;;;;;;;4.00;2.22;;;19.10;99.90;;;;;;6243625;28;20308;-68
2022/06/07 14:24:01;;;;;;;2.35;2.25;;;19.00;99.90;;;;;;6253560;28;20300;-68
2022/06/07 14:27:10;;;;;;;2.55;2.40;;;18.80;99.90;;;;;;6264114;28;20457;-68
2022/06/07 14:30:17;;;;;;;2.47;2.38;;;18.70;99.90;;;;;;6240124;28;20305;-68
2022/06/07 14:33:24;;;;;;;3.63;2.30;;;18.50;99.90;;;;;;6248523;28;20299;-67
2022/06/07 14:36:29;;;;;;;2.63;2.40;;;18.50;99.90;;;;;;6264436;28;20292;-68
2022/06/07 14:39:34;;;;;;;2.58;2.38;;;18.40;99.90;;;;;;6245344;28;20614;-68
2022/06/07 14:42:42;;;;;;;8.88;2.40;;;18.40;99.90;;;;;;6241895;28;20285;-68
2022/06/07 14:45:54;;;;;;;2.42;2.33;;;18.40;99.90;;;;;;6264397;28;20271;-68
2022/06/07 14:49:06;;;;;;;2.92;2.70;;;18.30;99.90;;;;;;6249519;28;20596;-68
2022/06/07 14:52:16;;;;;;;2.80;2.45;;;18.20;99.90;;;;;;6239703;28;20320;-68
2022/06/07 14:55:24;;;;;;;2.60;2.50;;;18.00;99.90;;;;;;6262808;28;20279;-68
2022/06/07 14:58:29;;;;;;;2.28;2.28;;;17.90;99.90;;;;;;6263793;28;20296;-68
2022/06/07 15:01:40;;;;;;;3.08;2.97;;;18.00;99.90;;;;;;6263576;28;20275;-67
2022/06/07 15:04:53;;;;;;;3.75;2.65;;;18.10;99.90;;;;;;6262951;28;20295;-67
2022/06/07 15:08:03;;;;;;;4.15;2.72;;;18.00;99.90;;;;;;6270956;28;20291;-67
2022/06/07 15:11:09;;;;;;;2.75;2.65;;;17.90;99.90;;;;;;6287824;28;20288;-67
2022/06/07 15:14:15;;;;;;;2.90;2.70;;;17.90;99.90;;;;;;6287906;28;20295;-67
2022/06/07 15:17:25;;;;;;;2.97;2.90;;;17.90;99.90;;;;;;6287170;28;20266;-67
2022/06/07 15:20:34;;;;;;;3.10;3.00;;;17.80;99.90;;;;;;6287999;28;20275;-67
2022/06/07 15:23:41;;;;;;;3.15;3.05;;;17.80;99.90;;;;;;6287161;28;20299;-67
2022/06/07 15:26:47;;;;;;;3.63;3.42;;;17.70;99.90;;;;;;6287721;28;20271;-67
2022/06/07 15:29:52;;;;;;;3.03;2.78;;;17.70;99.90;;;;;;6287441;28;20299;-67
2022/06/07 15:32:59;;;;;;;5.00;3.10;;;17.70;99.90;;;;;;6286042;28;20283;-67
2022/06/07 15:36:05;;;;;;;3.47;3.13;;;17.70;99.90;;;;;;6286556;28;20276;-67
2022/06/07 15:39:13;;;;;;;3.72;3.08;;;17.70;99.90;;;;;;6287066;28;20444;-67
2022/06/07 15:42:48;;;;;;;3.53;3.22;;;17.50;99.90;;;;;;6286890;28;20270;-67
2022/06/07 15:45:52;;;;;;;2.92;2.83;;;17.60;99.90;;;;;;6286954;28;20562;-67
2022/06/07 15:49:00;;;;;;;4.90;4.60;;;17.60;99.90;;;;;;6286805;28;20299;-67
2022/06/07 15:52:05;;;;;;;3.40;3.22;;;17.60;99.90;;;;;;6287136;28;20279;-67
2022/06/07 15:55:14;;;;;;;4.63;4.32;;;17.60;99.90;;;;;;6286505;28;20299;-67
2022/06/07 16:01:43;;;;;;;4.50;4.13;;;17.40;99.90;;;;;;6287032;28;20462;-67
2022/06/07 16:04:49;;;;;;;3.47;3.35;;;17.40;99.90;;;;;;6286199;28;20290;-67
2022/06/07 16:07:54;;;;;;;4.65;4.18;;;17.30;99.90;;;;;;6292502;28;20605;-67
2022/06/07 16:10:59;;;;;;;3.55;3.45;;;17.40;99.90;;;;;;6310655;28;20286;-67
2022/06/07 16:14:04;;;;;;;3.60;3.50;;;17.50;99.90;;;;;;6310914;28;20294;-67
2022/06/07 16:17:10;;;;;;;3.67;3.45;;;17.50;99.90;;;;;;6311546;28;20267;-67
2022/06/07 16:20:19;;;;;;;3.60;3.30;;;17.50;99.90;;;;;;6310652;28;20303;-67
2022/06/07 16:23:24;;;;;;;5.10;3.22;;;17.50;99.90;;;;;;6310712;28;20298;-67
2022/06/07 16:26:30;;;;;;;3.60;2.90;;;17.40;99.90;;;;;;6311272;28;20526;-67
2022/06/07 16:33:20;;;;;;;6.13;3.88;;;17.20;99.90;;;;;;6209981;28;20289;-68
2022/06/07 16:36:31;;;;;;;3.30;2.95;;;17.10;99.90;;;;;;6210410;28;20576;-68
2022/06/07 16:39:36;;;;;;;4.25;3.50;;;17.10;99.90;;;;;;6310237;28;20295;-68
2022/06/07 16:42:41;;;;;;;4.93;3.30;;;17.10;99.90;;;;;;6310573;28;20588;-67
2022/06/07 16:45:46;;;;;;;3.28;3.10;;;17.00;99.90;;;;;;6311060;28;20274;-68
2022/06/07 16:48:52;;;;;;;5.50;3.33;;;17.00;99.90;;;;;;6310065;28;20613;-68
2022/06/07 16:52:02;;;;;;;5.80;3.22;;;16.90;99.90;;;;;;6310604;28;20286;-67
2022/06/07 16:55:08;;;;;;;3.08;2.88;;;16.90;99.90;;;;;;6310570;28;20581;-66
2022/06/07 16:58:14;;;;;;;3.22;3.13;;;17.00;99.90;;;;;;6310158;28;20295;-68
2022/06/07 17:01:26;;;;;;;3.60;3.30;;;17.00;99.90;;;;;;6310643;28;20278;-67
2022/06/07 17:04:31;;;;;;;4.97;3.00;;;16.90;99.90;;;;;;6310070;28;20534;-67
2022/06/07 17:07:38;;;;;;;4.32;2.97;;;16.90;99.90;;;;;;6309962;28;20293;-67